Time;durP1;ratioP1;P1;durP2;ratioP2;P2;SDS_P1;SDS_P2;PMS_P1;PMS_P2;Temp;Humidity;BMP_temperature;BMP_pressure;BME280_temperature;BME280_humidity;BME280_pressure;Samples;Min_cycle;Max_cycle;Signal;HPM_P1;HPM_P2
2022/02/28 00:01:47;;;;;;;11.55;6.40;;;1.90;42.60;;;;;;5115236;28;20213;-74
2022/02/28 00:04:14;;;;;;;7.25;5.85;;;1.90;42.70;;;;;;5116918;28;20229;-73
2022/02/28 00:06:41;;;;;;;9.27;6.47;;;1.90;43.20;;;;;;5116645;28;20207;-72
2022/02/28 00:09:08;;;;;;;9.55;5.50;;;1.90;43.20;;;;;;5115766;28;20252;-72
2022/02/28 00:11:35;;;;;;;7.88;5.78;;;1.80;43.10;;;;;;5101118;28;20216;-73
2022/02/28 00:14:03;;;;;;;9.20;5.60;;;1.70;43.00;;;;;;5096333;28;20206;-73
2022/02/28 00:16:30;;;;;;;7.35;5.50;;;1.70;43.40;;;;;;5095842;28;20591;-73
2022/02/28 00:18:57;;;;;;;7.97;6.13;;;1.60;43.80;;;;;;5096585;28;20305;-74
2022/02/28 00:21:24;;;;;;;11.07;6.22;;;1.60;44.00;;;;;;5095243;28;20714;-74
2022/02/28 00:23:51;;;;;;;8.20;5.88;;;1.60;43.90;;;;;;5095025;28;20229;-74
2022/02/28 00:26:18;;;;;;;10.80;6.30;;;1.60;43.90;;;;;;5094467;28;20292;-74
2022/02/28 00:28:44;;;;;;;10.15;6.20;;;1.60;44.80;;;;;;5094348;28;20669;-73
2022/02/28 00:31:13;;;;;;;8.73;5.40;;;1.50;44.40;;;;;;5094178;28;20740;-73
2022/02/28 00:33:40;;;;;;;9.77;6.10;;;1.50;44.50;;;;;;5095058;28;20207;-74
2022/02/28 00:36:07;;;;;;;8.00;6.05;;;1.50;44.30;;;;;;5094471;28;20202;-74
2022/02/28 00:38:34;;;;;;;8.95;6.82;;;1.50;44.20;;;;;;5093859;28;20724;-74
2022/02/28 00:41:01;;;;;;;9.85;6.53;;;1.50;44.30;;;;;;5094258;28;20209;-73
2022/02/28 00:43:28;;;;;;;11.40;6.30;;;1.50;44.60;;;;;;5094494;28;20220;-75
2022/02/28 00:45:55;;;;;;;9.60;5.75;;;1.40;45.00;;;;;;5094616;28;20668;-74
2022/02/28 00:48:23;;;;;;;6.45;5.20;;;1.30;45.40;;;;;;5093746;28;20731;-73
2022/02/28 00:50:50;;;;;;;10.02;7.28;;;1.30;45.50;;;;;;5093859;28;20307;-73
2022/02/28 00:53:17;;;;;;;8.35;6.57;;;1.30;45.60;;;;;;5093904;28;20248;-74
2022/02/28 00:55:44;;;;;;;10.50;6.38;;;1.20;45.60;;;;;;5093937;28;20626;-73
2022/02/28 00:58:11;;;;;;;11.20;7.10;;;1.10;46.10;;;;;;5093592;28;20644;-73
2022/02/28 01:00:38;;;;;;;8.88;5.15;;;1.00;46.30;;;;;;5093714;28;20213;-74
2022/02/28 01:03:05;;;;;;;11.10;6.38;;;0.90;46.70;;;;;;5095505;28;20208;-73
2022/02/28 01:05:33;;;;;;;10.50;6.38;;;0.80;47.00;;;;;;5093849;28;20209;-73
2022/02/28 01:08:00;;;;;;;9.60;5.88;;;0.80;47.20;;;;;;5093986;28;20568;-74
2022/02/28 01:10:27;;;;;;;10.15;6.70;;;0.70;47.50;;;;;;5093970;28;20254;-74
2022/02/28 01:12:55;;;;;;;10.40;6.13;;;0.70;47.80;;;;;;5094238;28;20197;-74
2022/02/28 01:15:22;;;;;;;9.35;6.13;;;0.70;48.40;;;;;;5093892;28;20673;-74
2022/02/28 01:17:50;;;;;;;10.35;6.38;;;0.70;48.40;;;;;;5093514;28;20308;-73
2022/02/28 01:20:18;;;;;;;8.23;5.85;;;0.80;48.60;;;;;;5095568;28;20210;-74
2022/02/28 01:22:46;;;;;;;9.05;5.63;;;0.80;48.90;;;;;;5095189;28;20282;-74
2022/02/28 01:25:13;;;;;;;10.10;5.95;;;0.70;49.20;;;;;;5094322;28;20300;-73
2022/02/28 01:27:40;;;;;;;9.88;6.20;;;0.70;49.30;;;;;;5093673;28;20247;-74
2022/02/28 01:30:09;;;;;;;8.20;6.35;;;0.80;49.50;;;;;;5093407;28;20205;-74
2022/02/28 01:32:35;;;;;;;8.48;5.95;;;0.80;49.60;;;;;;5093681;28;20630;-74
2022/02/28 01:35:03;;;;;;;9.68;6.03;;;0.80;49.40;;;;;;5094807;28;20300;-73
2022/02/28 01:37:30;;;;;;;8.50;6.38;;;0.90;49.30;;;;;;5094286;28;20325;-74
2022/02/28 01:39:58;;;;;;;7.22;5.70;;;1.00;48.80;;;;;;5094561;28;20301;-74
2022/02/28 01:42:25;;;;;;;6.93;5.10;;;1.20;47.20;;;;;;5093837;28;20232;-74
2022/02/28 01:44:52;;;;;;;10.45;6.40;;;1.30;46.60;;;;;;5093809;28;20209;-74
2022/02/28 01:47:19;;;;;;;7.85;6.38;;;1.30;46.60;;;;;;5093966;28;20229;-74
2022/02/28 01:49:46;;;;;;;8.55;5.40;;;1.40;45.80;;;;;;5093781;28;20318;-74
2022/02/28 01:52:14;;;;;;;9.50;6.80;;;1.40;45.60;;;;;;5093396;28;20572;-74
2022/02/28 01:54:41;;;;;;;11.05;6.38;;;1.30;46.00;;;;;;5093925;28;20225;-74
2022/02/28 01:57:09;;;;;;;8.75;6.32;;;1.20;46.10;;;;;;5093588;28;20215;-73
2022/02/28 01:59:36;;;;;;;7.55;5.60;;;1.10;46.60;;;;;;5094825;28;20209;-73
2022/02/28 02:02:03;;;;;;;7.28;5.97;;;1.00;47.10;;;;;;5095857;28;20524;-73
2022/02/28 02:04:30;;;;;;;10.15;5.40;;;1.00;47.70;;;;;;5098734;28;20205;-73
2022/02/28 02:06:57;;;;;;;10.88;6.18;;;0.90;48.30;;;;;;5100806;28;20220;-74
2022/02/28 02:09:24;;;;;;;7.30;5.50;;;0.80;49.20;;;;;;5111053;28;20292;-74
2022/02/28 02:11:52;;;;;;;8.80;6.78;;;0.70;50.00;;;;;;5109170;28;20293;-74
2022/02/28 02:14:20;;;;;;;11.57;5.80;;;0.60;50.90;;;;;;5104766;28;20232;-74
2022/02/28 02:16:47;;;;;;;9.00;5.90;;;0.60;51.50;;;;;;5110420;28;20208;-74
2022/02/28 02:19:14;;;;;;;8.57;5.50;;;0.60;51.50;;;;;;5110858;28;20259;-74
2022/02/28 02:21:42;;;;;;;9.98;6.45;;;0.60;51.50;;;;;;5112705;28;20222;-74
2022/02/28 02:24:10;;;;;;;9.07;6.03;;;0.50;51.40;;;;;;5112367;28;20221;-74
2022/02/28 02:26:37;;;;;;;9.20;6.13;;;0.40;51.30;;;;;;5112777;28;20219;-74
2022/02/28 02:29:04;;;;;;;13.55;6.45;;;0.40;52.10;;;;;;5112618;28;20248;-74
2022/02/28 02:31:30;;;;;;;8.75;6.20;;;0.30;52.90;;;;;;5113620;28;20213;-73
2022/02/28 02:33:58;;;;;;;9.43;5.70;;;0.30;53.20;;;;;;5108329;28;20228;-73
2022/02/28 02:36:25;;;;;;;10.73;6.38;;;0.30;54.10;;;;;;5112865;28;20226;-74
2022/02/28 02:38:53;;;;;;;10.82;6.75;;;0.30;54.10;;;;;;5117678;28;20225;-75
2022/02/28 02:41:21;;;;;;;12.48;5.90;;;0.30;54.20;;;;;;5118061;28;20257;-74
2022/02/28 02:43:49;;;;;;;8.55;6.20;;;0.30;54.30;;;;;;5118318;28;20268;-73
2022/02/28 02:46:16;;;;;;;8.15;5.72;;;0.30;54.50;;;;;;5118461;28;20209;-74
2022/02/28 02:48:43;;;;;;;8.07;5.70;;;0.20;54.70;;;;;;5108904;28;20268;-73
2022/02/28 02:51:12;;;;;;;10.73;6.55;;;0.20;55.30;;;;;;5101314;28;20288;-74
2022/02/28 02:53:39;;;;;;;7.82;5.25;;;0.20;55.40;;;;;;5105797;28;20213;-75
2022/02/28 02:56:07;;;;;;;8.93;6.50;;;0.20;55.20;;;;;;5100059;28;20201;-75
2022/02/28 02:58:34;;;;;;;10.43;6.80;;;0.30;54.90;;;;;;5098653;28;20257;-74
2022/02/28 03:01:01;;;;;;;10.32;7.10;;;0.30;54.80;;;;;;5100586;28;20205;-76
2022/02/28 03:03:27;;;;;;;11.50;7.30;;;0.30;54.80;;;;;;5101872;28;20617;-75
2022/02/28 03:05:54;;;;;;;11.90;6.70;;;0.40;53.80;;;;;;5099057;28;20233;-74
2022/02/28 03:08:22;;;;;;;11.88;6.93;;;0.40;53.60;;;;;;5099664;28;20216;-76
2022/02/28 03:10:49;;;;;;;9.38;6.82;;;0.40;53.60;;;;;;5098080;28;20299;-75
2022/02/28 03:13:17;;;;;;;9.02;6.53;;;0.40;53.80;;;;;;5098512;28;20296;-76
2022/02/28 03:15:44;;;;;;;10.57;6.93;;;0.30;53.90;;;;;;5098025;28;20205;-75
2022/02/28 03:18:11;;;;;;;13.10;6.95;;;0.30;54.20;;;;;;5099607;28;20289;-75
2022/02/28 03:20:37;;;;;;;9.52;6.32;;;0.30;54.60;;;;;;5099542;28;20255;-74
2022/02/28 03:23:05;;;;;;;9.90;6.63;;;0.30;53.80;;;;;;5097707;28;20208;-76
2022/02/28 03:25:32;;;;;;;12.20;6.38;;;0.20;53.80;;;;;;5096870;28;20272;-74
2022/02/28 03:27:58;;;;;;;10.80;6.82;;;0.20;54.10;;;;;;5096162;28;20233;-74
2022/02/28 03:30:27;;;;;;;8.63;5.85;;;0.10;54.40;;;;;;5096497;28;20205;-74
2022/02/28 03:32:55;;;;;;;11.38;7.20;;;0.10;54.80;;;;;;5096068;28;20215;-75
2022/02/28 03:35:22;;;;;;;10.75;6.50;;;0.00;55.20;;;;;;5096098;28;20235;-75
2022/02/28 03:37:49;;;;;;;10.13;6.50;;;0.00;55.60;;;;;;5144594;22;20608;-79
2022/02/28 03:40:16;;;;;;;13.25;6.20;;;-0.10;55.80;;;;;;5099826;28;20209;-79
2022/02/28 03:42:42;;;;;;;9.70;7.00;;;-0.10;56.10;;;;;;5098804;28;20240;-79
2022/02/28 03:45:10;;;;;;;11.50;6.35;;;-0.10;55.60;;;;;;5099223;28;20230;-80
2022/02/28 03:47:39;;;;;;;7.40;5.80;;;-0.10;55.50;;;;;;5098853;28;20221;-80
2022/02/28 03:50:06;;;;;;;11.98;6.85;;;-0.20;56.40;;;;;;5098125;28;20290;-79
2022/02/28 03:52:33;;;;;;;9.75;6.00;;;-0.30;57.40;;;;;;5098651;28;20200;-78
2022/02/28 03:55:00;;;;;;;8.55;5.72;;;-0.40;58.50;;;;;;5098222;28;20672;-79
2022/02/28 03:57:27;;;;;;;8.05;6.13;;;-0.50;60.30;;;;;;5099453;28;20265;-79
2022/02/28 03:59:54;;;;;;;10.85;6.70;;;-0.50;59.70;;;;;;5099293;28;20208;-79
2022/02/28 04:02:22;;;;;;;9.73;6.28;;;-0.60;59.60;;;;;;5101676;28;20209;-79
2022/02/28 04:04:50;;;;;;;10.25;7.10;;;-0.60;60.20;;;;;;5100395;28;20656;-80
2022/02/28 04:07:18;;;;;;;10.90;6.38;;;-0.60;60.10;;;;;;5098225;28;20211;-79
2022/02/28 04:09:45;;;;;;;11.20;7.38;;;-0.50;60.40;;;;;;5110521;28;20229;-78
2022/02/28 04:12:12;;;;;;;10.20;6.68;;;-0.50;60.30;;;;;;5100241;28;20201;-79
2022/02/28 04:14:39;;;;;;;11.60;6.88;;;-0.50;59.70;;;;;;5108440;28;20421;-79
2022/02/28 04:17:06;;;;;;;9.55;6.32;;;-0.50;59.70;;;;;;5116481;28;20194;-78
2022/02/28 04:19:33;;;;;;;11.60;6.65;;;-0.50;59.70;;;;;;5114467;28;20229;-79
2022/02/28 04:22:01;;;;;;;14.40;7.15;;;-0.50;59.70;;;;;;5111447;28;20284;-80
2022/02/28 04:24:28;;;;;;;10.50;6.85;;;-0.50;59.70;;;;;;5110052;28;20221;-79
2022/02/28 04:26:55;;;;;;;9.23;6.90;;;-0.60;60.40;;;;;;5111104;28;20221;-79
2022/02/28 04:29:22;;;;;;;8.85;6.28;;;-0.50;61.40;;;;;;5105724;28;20312;-79
2022/02/28 04:31:49;;;;;;;10.95;7.00;;;-0.50;60.60;;;;;;5100676;28;20566;-79
2022/02/28 04:34:16;;;;;;;11.15;6.85;;;-0.60;60.70;;;;;;5099188;28;20209;-79
2022/02/28 04:36:43;;;;;;;10.07;7.00;;;-0.70;60.90;;;;;;5098462;28;20205;-80
2022/02/28 04:39:12;;;;;;;10.63;7.22;;;-0.70;61.30;;;;;;5097550;28;20233;-78
2022/02/28 04:41:39;;;;;;;11.93;6.85;;;-0.80;61.90;;;;;;5100777;28;20216;-79
2022/02/28 04:44:06;;;;;;;10.30;7.47;;;-0.80;62.10;;;;;;5097625;28;20224;-79
2022/02/28 04:46:33;;;;;;;13.85;7.07;;;-0.70;62.20;;;;;;5097707;28;20201;-79
2022/02/28 04:49:00;;;;;;;13.52;8.65;;;-0.70;61.90;;;;;;5098363;28;20229;-79
2022/02/28 04:51:27;;;;;;;9.63;6.90;;;-0.60;61.60;;;;;;5102588;28;20206;-79
2022/02/28 04:53:53;;;;;;;12.68;7.60;;;-0.60;61.10;;;;;;5102581;28;20204;-79
2022/02/28 04:56:22;;;;;;;8.05;6.25;;;-0.60;61.00;;;;;;5105592;28;20252;-79
2022/02/28 04:58:49;;;;;;;11.82;6.68;;;-0.60;61.10;;;;;;5100508;28;20221;-79
2022/02/28 05:01:15;;;;;;;13.30;7.55;;;-0.60;61.00;;;;;;5098704;28;20224;-79
2022/02/28 05:03:42;;;;;;;15.35;8.48;;;-0.60;60.80;;;;;;5104665;28;20215;-78
2022/02/28 05:06:09;;;;;;;13.05;7.13;;;-0.70;60.60;;;;;;5105873;28;20227;-78
2022/02/28 05:08:36;;;;;;;12.57;7.63;;;-0.60;61.00;;;;;;5101321;28;20225;-78
2022/02/28 05:11:03;;;;;;;14.65;8.10;;;-0.70;61.10;;;;;;5101232;28;20228;-78
2022/02/28 05:13:32;;;;;;;11.30;7.75;;;-0.70;61.20;;;;;;5106721;28;20293;-79
2022/02/28 05:15:59;;;;;;;12.88;7.65;;;-0.70;61.70;;;;;;5105871;28;20267;-79
2022/02/28 05:18:26;;;;;;;11.70;7.30;;;-0.70;61.50;;;;;;5103279;28;20249;-79
2022/02/28 05:20:53;;;;;;;12.27;7.68;;;-0.60;61.60;;;;;;5112728;28;20216;-79
2022/02/28 05:23:20;;;;;;;17.88;10.65;;;-0.60;61.60;;;;;;5110421;28;20220;-79
2022/02/28 05:25:47;;;;;;;11.32;8.20;;;-0.60;61.60;;;;;;5098816;28;20212;-78
2022/02/28 05:28:14;;;;;;;16.23;8.68;;;-0.60;61.80;;;;;;5097224;28;20236;-80
2022/02/28 05:30:46;;;;;;;14.45;8.48;;;-0.70;61.50;;;;;;5097623;28;20244;-80
2022/02/28 05:33:13;;;;;;;11.05;7.13;;;-0.70;61.60;;;;;;5097410;28;20197;-78
2022/02/28 05:35:39;;;;;;;13.90;8.45;;;-0.70;61.60;;;;;;5098193;28;20215;-78
2022/02/28 05:38:06;;;;;;;11.50;7.50;;;-0.70;61.60;;;;;;5097371;28;20241;-78
2022/02/28 05:40:33;;;;;;;11.93;7.43;;;-0.70;61.70;;;;;;5096245;28;20654;-78
2022/02/28 05:43:00;;;;;;;11.98;7.47;;;-0.70;61.80;;;;;;5097556;28;20244;-78
2022/02/28 05:45:27;;;;;;;12.23;8.07;;;-0.70;61.90;;;;;;5098195;28;20240;-79
2022/02/28 05:47:55;;;;;;;13.00;7.32;;;-0.70;61.80;;;;;;5096449;28;20252;-78
2022/02/28 05:50:23;;;;;;;13.82;8.15;;;-0.70;61.60;;;;;;5097587;28;20313;-79
2022/02/28 05:52:50;;;;;;;15.82;9.00;;;-0.70;61.60;;;;;;5095959;28;20209;-79
2022/02/28 05:55:17;;;;;;;12.25;7.53;;;-0.80;61.80;;;;;;5095540;28;20227;-78
2022/02/28 05:57:43;;;;;;;12.98;7.47;;;-0.80;62.30;;;;;;5095762;28;20760;-79
2022/02/28 06:00:11;;;;;;;9.73;7.00;;;-0.80;62.40;;;;;;5099127;28;20572;-79
2022/02/28 06:02:38;;;;;;;12.88;8.55;;;-0.90;62.30;;;;;;5105843;28;20295;-80
2022/02/28 06:05:07;;;;;;;10.07;7.75;;;-0.80;62.20;;;;;;5100713;28;20231;-79
2022/02/28 06:07:34;;;;;;;12.93;8.20;;;-0.80;61.80;;;;;;5104510;28;20263;-79
2022/02/28 06:10:01;;;;;;;13.40;7.75;;;-0.70;61.30;;;;;;5102919;28;20320;-79
2022/02/28 06:12:28;;;;;;;14.80;7.97;;;-0.70;60.60;;;;;;5095757;28;20284;-79
2022/02/28 06:14:55;;;;;;;10.80;7.80;;;-0.70;60.30;;;;;;5096320;28;20209;-79
2022/02/28 06:17:22;;;;;;;11.60;8.35;;;-0.70;60.10;;;;;;5095908;28;20281;-79
2022/02/28 06:19:50;;;;;;;16.00;8.93;;;-0.60;60.00;;;;;;5109205;28;20572;-79
2022/02/28 06:22:20;;;;;;;13.63;7.40;;;-0.70;60.30;;;;;;5110412;28;20205;-78
2022/02/28 06:24:47;;;;;;;12.25;7.95;;;-0.70;60.50;;;;;;5108975;28;20201;-79
2022/02/28 06:27:14;;;;;;;22.90;8.35;;;-0.70;60.60;;;;;;5095700;28;20216;-79
2022/02/28 06:29:43;;;;;;;15.35;8.57;;;-0.70;60.80;;;;;;5095802;28;20240;-79
2022/02/28 06:32:10;;;;;;;13.63;8.75;;;-0.70;60.90;;;;;;5096165;28;20216;-79
2022/02/28 06:34:37;;;;;;;12.93;8.95;;;-0.70;61.10;;;;;;5098826;28;20680;-78
2022/02/28 06:37:04;;;;;;;15.85;9.65;;;-0.70;61.10;;;;;;5100739;28;20219;-79
2022/02/28 06:39:33;;;;;;;12.32;8.40;;;-0.70;60.80;;;;;;5099121;28;20657;-79
2022/02/28 06:42:00;;;;;;;14.43;7.70;;;-0.70;60.40;;;;;;5104500;28;20209;-80
2022/02/28 06:44:28;;;;;;;13.93;8.90;;;-0.60;60.30;;;;;;5105936;28;20217;-79
2022/02/28 06:46:54;;;;;;;15.65;8.73;;;-0.60;60.10;;;;;;5106002;28;20295;-79
2022/02/28 06:49:21;;;;;;;11.80;8.40;;;-0.50;59.70;;;;;;5106080;28;20229;-78
2022/02/28 06:51:49;;;;;;;15.10;10.02;;;-0.40;59.80;;;;;;5107064;28;20274;-79
2022/02/28 06:54:16;;;;;;;15.15;8.30;;;-0.40;59.80;;;;;;5109154;28;20237;-78
2022/02/28 06:56:44;;;;;;;13.80;8.60;;;-0.30;59.80;;;;;;5112028;28;20234;-78
2022/02/28 06:59:11;;;;;;;13.20;8.93;;;-0.20;59.20;;;;;;5116304;28;20277;-79
2022/02/28 07:01:39;;;;;;;13.65;8.60;;;-0.10;58.50;;;;;;5115498;28;20201;-79
2022/02/28 07:04:07;;;;;;;16.67;9.07;;;0.00;57.90;;;;;;5111659;28;20228;-79
2022/02/28 07:06:35;;;;;;;16.25;9.57;;;0.00;57.20;;;;;;5111803;28;20221;-78
2022/02/28 07:09:04;;;;;;;13.48;8.07;;;0.00;56.90;;;;;;5109897;28;20260;-78
2022/02/28 07:11:31;;;;;;;17.38;8.55;;;0.10;56.50;;;;;;5102110;28;20217;-80
2022/02/28 07:13:59;;;;;;;11.88;7.95;;;0.20;55.80;;;;;;5096554;28;20654;-78
2022/02/28 07:16:26;;;;;;;19.85;8.23;;;0.20;55.70;;;;;;5098487;28;20273;-80
2022/02/28 07:18:53;;;;;;;14.50;9.02;;;0.40;55.90;;;;;;5102802;28;20229;-78
2022/02/28 07:21:20;;;;;;;21.35;9.48;;;0.50;54.90;;;;;;5105608;28;20209;-78
2022/02/28 07:23:47;;;;;;;16.52;9.55;;;0.60;54.30;;;;;;5112014;28;20235;-79
2022/02/28 07:26:13;;;;;;;12.85;9.15;;;0.70;53.60;;;;;;5114478;28;20236;-78
2022/02/28 07:28:40;;;;;;;13.55;8.98;;;0.80;53.10;;;;;;5112377;28;20233;-78
2022/02/28 07:31:08;;;;;;;17.38;10.45;;;0.90;52.10;;;;;;5111551;28;20225;-78
2022/02/28 07:33:37;;;;;;;15.45;9.23;;;0.90;51.80;;;;;;5111898;28;20213;-78
2022/02/28 07:36:06;;;;;;;14.23;8.52;;;1.00;51.80;;;;;;5111936;28;20703;-79
2022/02/28 07:38:33;;;;;;;14.88;9.05;;;1.10;51.80;;;;;;5111675;28;20231;-79
2022/02/28 07:41:00;;;;;;;14.55;8.35;;;1.20;51.10;;;;;;5112344;28;20206;-79
2022/02/28 07:43:27;;;;;;;14.95;8.65;;;1.30;50.20;;;;;;5106918;28;20201;-79
2022/02/28 07:45:54;;;;;;;12.57;8.90;;;1.40;49.70;;;;;;5105434;28;20216;-78
2022/02/28 07:48:22;;;;;;;17.70;8.15;;;1.40;49.10;;;;;;5105666;28;20229;-79
2022/02/28 07:50:49;;;;;;;13.82;9.13;;;1.50;48.90;;;;;;5104575;28;20296;-78
2022/02/28 07:53:16;;;;;;;11.35;7.85;;;1.60;48.70;;;;;;5109282;28;20216;-79
2022/02/28 07:55:43;;;;;;;14.38;8.98;;;1.70;48.00;;;;;;5105713;28;20207;-78
2022/02/28 07:58:10;;;;;;;13.35;9.25;;;1.80;47.90;;;;;;5104354;28;20232;-80
2022/02/28 08:00:37;;;;;;;12.75;8.68;;;1.90;47.60;;;;;;5110862;28;20207;-79
2022/02/28 08:03:04;;;;;;;12.95;8.95;;;2.00;46.90;;;;;;5113302;28;20293;-79
2022/02/28 08:05:32;;;;;;;67.00;15.45;;;2.10;46.80;;;;;;5109947;28;20224;-78
2022/02/28 08:07:59;;;;;;;21.73;9.85;;;2.20;46.60;;;;;;5112819;28;20229;-80
2022/02/28 08:10:26;;;;;;;20.77;9.35;;;2.30;45.80;;;;;;5113833;28;20217;-78
2022/02/28 08:12:53;;;;;;;20.13;9.27;;;2.40;45.60;;;;;;5112634;28;20210;-79
2022/02/28 08:15:20;;;;;;;15.93;8.52;;;2.50;45.50;;;;;;5109554;28;20201;-79
2022/02/28 08:17:48;;;;;;;15.20;8.90;;;2.60;45.20;;;;;;5112791;28;20252;-79
2022/02/28 08:20:15;;;;;;;17.27;9.90;;;2.70;44.80;;;;;;5113647;28;20209;-79
2022/02/28 08:22:43;;;;;;;13.55;8.75;;;2.80;44.00;;;;;;5113411;28;20216;-80
2022/02/28 08:25:10;;;;;;;14.07;8.32;;;2.90;44.10;;;;;;5111640;28;20212;-79
2022/02/28 08:27:38;;;;;;;21.23;9.95;;;3.00;44.20;;;;;;5109298;28;20229;-80
2022/02/28 08:30:06;;;;;;;13.57;8.93;;;3.00;44.20;;;;;;5104996;28;20267;-79
2022/02/28 08:32:33;;;;;;;18.25;9.15;;;3.10;43.30;;;;;;5101013;28;20211;-80
2022/02/28 08:35:00;;;;;;;12.93;9.05;;;3.20;43.10;;;;;;5109944;28;20228;-80
2022/02/28 08:37:27;;;;;;;14.10;9.25;;;3.30;42.20;;;;;;5109627;28;20210;-80
2022/02/28 08:39:55;;;;;;;17.30;8.57;;;3.40;42.10;;;;;;5109749;28;20228;-79
2022/02/28 08:42:22;;;;;;;15.57;8.80;;;3.60;41.70;;;;;;5114576;28;20217;-80
2022/02/28 08:44:49;;;;;;;12.23;8.13;;;3.70;41.40;;;;;;5112522;28;20236;-80
2022/02/28 08:47:16;;;;;;;19.35;8.18;;;3.80;40.60;;;;;;5112283;28;20214;-80
2022/02/28 08:49:43;;;;;;;13.82;9.90;;;3.80;40.70;;;;;;5113624;28;20225;-79
2022/02/28 08:52:10;;;;;;;13.80;8.30;;;3.90;40.10;;;;;;5114936;28;20199;-80
2022/02/28 08:54:37;;;;;;;15.10;8.55;;;4.00;40.20;;;;;;5112463;28;20205;-79
2022/02/28 08:57:05;;;;;;;14.15;8.70;;;4.10;39.50;;;;;;5113076;28;20221;-80
2022/02/28 08:59:34;;;;;;;13.45;9.25;;;4.30;39.20;;;;;;5112261;28;20256;-79
2022/02/28 09:02:01;;;;;;;11.80;9.00;;;4.40;38.40;;;;;;5111747;28;20210;-79
2022/02/28 09:04:27;;;;;;;15.80;9.02;;;4.50;38.00;;;;;;5116944;28;20213;-79
2022/02/28 09:06:54;;;;;;;17.65;9.02;;;4.70;37.40;;;;;;5116954;28;20203;-80
2022/02/28 09:09:21;;;;;;;11.82;8.57;;;4.70;37.40;;;;;;5100599;28;20236;-80
2022/02/28 09:11:48;;;;;;;14.00;8.85;;;4.90;36.00;;;;;;5100481;28;20262;-80
2022/02/28 09:14:17;;;;;;;15.95;9.70;;;4.90;36.10;;;;;;5107479;28;20206;-80
2022/02/28 09:16:43;;;;;;;13.43;8.85;;;5.00;36.10;;;;;;5107389;28;20210;-79
2022/02/28 09:19:10;;;;;;;12.85;8.95;;;5.10;36.20;;;;;;5097062;28;20290;-79
2022/02/28 09:21:39;;;;;;;14.18;8.38;;;5.20;36.20;;;;;;5096104;28;20237;-80
2022/02/28 09:24:06;;;;;;;15.57;9.35;;;5.40;35.00;;;;;;5097498;28;20325;-80
2022/02/28 09:26:34;;;;;;;17.40;9.45;;;5.40;34.20;;;;;;5096355;28;20289;-78
2022/02/28 09:29:00;;;;;;;12.18;7.57;;;5.50;32.90;;;;;;5097015;28;20231;-80
2022/02/28 09:31:29;;;;;;;15.45;8.32;;;5.50;33.50;;;;;;5096536;28;20239;-79
2022/02/28 09:33:55;;;;;;;17.27;8.35;;;5.70;33.40;;;;;;5096862;28;20207;-79
2022/02/28 09:36:22;;;;;;;14.88;8.45;;;5.70;32.60;;;;;;5099444;28;20218;-80
2022/02/28 09:38:49;;;;;;;20.42;9.50;;;5.80;33.20;;;;;;5119460;22;20316;-73
2022/02/28 09:41:18;;;;;;;10.68;8.10;;;5.70;32.30;;;;;;5117424;28;20230;-74
2022/02/28 09:43:45;;;;;;;12.50;9.45;;;5.90;32.50;;;;;;5119259;28;20269;-74
2022/02/28 09:46:12;;;;;;;20.92;9.38;;;6.10;31.50;;;;;;5125510;28;20292;-75
2022/02/28 09:48:41;;;;;;;37.20;9.77;;;6.10;31.00;;;;;;5125289;28;20226;-74
2022/02/28 09:51:08;;;;;;;36.47;11.13;;;6.20;31.30;;;;;;5124425;28;20226;-74
2022/02/28 09:53:35;;;;;;;44.63;11.93;;;6.10;31.50;;;;;;5123381;28;20226;-73
2022/02/28 09:56:02;;;;;;;56.60;13.05;;;6.30;31.50;;;;;;5118178;28;20207;-74
2022/02/28 09:58:30;;;;;;;13.98;10.15;;;6.40;30.90;;;;;;5116096;28;20237;-74
2022/02/28 10:00:57;;;;;;;61.42;15.10;;;6.40;30.70;;;;;;5115391;28;20202;-73
2022/02/28 10:03:25;;;;;;;46.22;12.98;;;6.60;31.00;;;;;;5115711;28;20214;-75
2022/02/28 10:05:58;;;;;;;24.15;9.57;;;6.70;30.50;;;;;;5116033;28;20271;-74
2022/02/28 10:08:25;;;;;;;15.93;9.25;;;6.70;30.10;;;;;;5116090;28;20234;-74
2022/02/28 10:10:52;;;;;;;31.52;10.63;;;6.70;30.80;;;;;;5114938;28;20228;-74
2022/02/28 10:13:29;;;;;;;21.77;9.88;;;6.60;30.60;;;;;;5115539;28;20238;-75
2022/02/28 10:15:57;;;;;;;49.10;14.85;;;6.70;30.30;;;;;;5115432;28;20234;-74
2022/02/28 10:18:26;;;;;;;43.58;11.60;;;6.80;30.30;;;;;;5115265;28;20426;-74
2022/02/28 10:20:55;;;;;;;16.95;8.00;;;6.80;29.70;;;;;;5114676;28;20293;-73
2022/02/28 10:23:25;;;;;;;33.08;10.88;;;6.90;29.90;;;;;;5114236;28;20236;-74
2022/02/28 10:25:53;;;;;;;14.48;9.00;;;7.00;29.30;;;;;;5114052;28;20226;-73
2022/02/28 10:28:24;;;;;;;12.82;8.00;;;7.00;29.00;;;;;;5114282;28;20307;-74
2022/02/28 10:31:00;;;;;;;17.42;9.10;;;6.90;29.00;;;;;;5117598;28;20220;-74
2022/02/28 10:33:32;;;;;;;37.47;11.05;;;6.90;28.40;;;;;;5128285;28;20198;-74
2022/02/28 10:36:11;;;;;;;21.10;10.05;;;7.00;29.40;;;;;;5114340;28;20209;-74
2022/02/28 10:38:44;;;;;;;14.80;8.60;;;6.80;29.30;;;;;;5115470;28;20237;-75
2022/02/28 10:41:22;;;;;;;21.00;9.25;;;7.10;29.30;;;;;;5126743;28;20206;-73
2022/02/28 10:43:52;;;;;;;14.98;8.60;;;7.20;28.60;;;;;;5133315;28;20224;-74
2022/02/28 10:46:21;;;;;;;13.63;8.10;;;7.30;28.60;;;;;;5132435;28;20241;-73
2022/02/28 10:48:56;;;;;;;12.68;8.40;;;7.50;28.80;;;;;;5131975;28;20641;-74
2022/02/28 10:51:24;;;;;;;14.05;8.05;;;7.40;28.70;;;;;;5123706;28;20249;-75
2022/02/28 10:54:07;;;;;;;13.20;8.13;;;7.60;28.80;;;;;;5120149;28;20223;-73
2022/02/28 10:56:46;;;;;;;19.65;9.45;;;7.70;28.50;;;;;;5118853;28;20528;-74
2022/02/28 10:59:13;;;;;;;9.43;7.30;;;7.90;28.20;;;;;;5122172;28;20696;-74
2022/02/28 11:01:40;;;;;;;8.05;6.97;;;7.70;27.40;;;;;;5118984;28;20492;-73
2022/02/28 11:04:08;;;;;;;9.98;7.22;;;7.80;28.30;;;;;;5118180;28;20251;-74
2022/02/28 11:06:38;;;;;;;12.48;8.05;;;7.70;27.10;;;;;;5118185;28;20675;-74
2022/02/28 11:09:06;;;;;;;8.95;6.55;;;7.70;27.60;;;;;;5117707;28;20291;-74
2022/02/28 11:11:33;;;;;;;11.93;7.78;;;7.80;26.60;;;;;;5117086;28;20219;-75
2022/02/28 11:14:01;;;;;;;12.52;7.25;;;7.70;27.00;;;;;;5117550;28;20598;-75
2022/02/28 11:16:30;;;;;;;11.57;7.95;;;8.00;27.40;;;;;;5117791;28;20207;-74
2022/02/28 11:18:57;;;;;;;13.65;8.63;;;8.00;26.70;;;;;;5118347;28;20378;-75
2022/02/28 11:21:24;;;;;;;12.25;8.40;;;7.80;26.90;;;;;;5118310;28;20200;-75
2022/02/28 11:23:53;;;;;;;11.43;7.65;;;8.20;27.40;;;;;;5121292;28;20199;-74
2022/02/28 11:26:22;;;;;;;10.13;7.78;;;8.20;26.40;;;;;;5122403;28;20274;-74
2022/02/28 11:28:49;;;;;;;10.77;7.68;;;8.20;25.90;;;;;;5121543;28;20593;-75
2022/02/28 11:31:18;;;;;;;15.95;7.97;;;8.30;26.40;;;;;;5121615;28;20669;-74
2022/02/28 11:33:52;;;;;;;13.75;7.65;;;8.20;25.80;;;;;;5121407;28;20210;-76
2022/02/28 11:36:19;;;;;;;16.60;7.90;;;8.10;26.20;;;;;;5120269;28;20250;-74
2022/02/28 11:38:49;;;;;;;13.73;9.02;;;8.30;26.10;;;;;;5119725;28;20232;-74
2022/02/28 11:41:21;;;;;;;19.50;7.75;;;8.30;25.90;;;;;;5119890;28;20197;-74
2022/02/28 11:43:51;;;;;;;13.38;8.70;;;8.40;25.80;;;;;;5122917;28;20192;-76
2022/02/28 11:46:21;;;;;;;12.98;8.00;;;8.50;25.50;;;;;;5124777;28;20207;-74
2022/02/28 11:48:50;;;;;;;12.60;8.77;;;8.60;25.80;;;;;;5124189;28;20258;-73
2022/02/28 11:51:26;;;;;;;16.30;7.82;;;8.50;25.20;;;;;;5123133;28;20240;-74
2022/02/28 11:53:55;;;;;;;11.48;8.02;;;8.40;25.80;;;;;;5126217;28;20206;-73
2022/02/28 11:57:00;;;;;;;10.45;8.18;;;8.50;25.90;;;;;;5124226;28;20210;-73
2022/02/28 11:59:39;;;;;;;16.52;7.90;;;8.50;26.10;;;;;;5124608;28;20227;-76
2022/02/28 12:02:24;;;;;;;15.27;9.27;;;8.70;25.60;;;;;;5122273;28;20192;-73
2022/02/28 12:04:51;;;;;;;29.38;10.23;;;8.60;26.30;;;;;;5123416;28;20205;-74
2022/02/28 12:07:26;;;;;;;12.95;8.98;;;8.50;25.90;;;;;;5121342;28;20561;-74
2022/02/28 12:10:02;;;;;;;15.30;8.90;;;8.60;25.50;;;;;;5123125;28;20782;-76
2022/02/28 12:12:33;;;;;;;14.38;8.82;;;8.50;26.10;;;;;;5122425;28;20208;-74
2022/02/28 12:15:19;;;;;;;12.02;8.57;;;8.60;25.80;;;;;;5124668;28;20253;-73
2022/02/28 12:18:03;;;;;;;16.77;9.20;;;8.80;25.90;;;;;;5129528;28;20274;-74
2022/02/28 12:20:32;;;;;;;13.15;8.43;;;8.80;25.70;;;;;;5133801;28;20203;-76
2022/02/28 12:23:16;;;;;;;11.27;8.95;;;8.60;25.50;;;;;;5135247;28;20268;-75
2022/02/28 12:25:46;;;;;;;13.32;9.38;;;8.90;25.80;;;;;;5135869;28;20203;-75
2022/02/28 12:28:23;;;;;;;13.15;9.73;;;9.10;25.30;;;;;;5135522;28;20247;-74
2022/02/28 12:30:54;;;;;;;11.18;8.77;;;9.00;25.20;;;;;;5135823;28;20216;-73
2022/02/28 12:33:25;;;;;;;11.60;8.23;;;9.00;24.50;;;;;;5138006;28;20227;-75
2022/02/28 12:35:57;;;;;;;13.50;8.27;;;9.10;25.10;;;;;;5134529;28;20216;-74
2022/02/28 12:38:27;;;;;;;11.02;9.00;;;9.30;24.30;;;;;;5132812;28;20251;-73
2022/02/28 12:40:56;;;;;;;11.93;8.98;;;9.10;24.50;;;;;;5131530;28;20200;-76
2022/02/28 12:43:26;;;;;;;10.80;8.50;;;9.00;23.80;;;;;;5123281;28;20208;-76
2022/02/28 12:45:56;;;;;;;14.48;9.77;;;9.00;24.00;;;;;;5120451;28;20863;-75
2022/02/28 12:48:24;;;;;;;15.48;8.48;;;9.10;24.10;;;;;;5120378;28;20729;-74
2022/02/28 12:50:53;;;;;;;13.65;8.43;;;9.10;24.00;;;;;;5118048;28;20222;-74